Tor Futura — OZZE2 — position and weather

sailwx.info

Track history (hours):
 
Tides and Currents Weather Stations Pressure Air Temp Water Temp Dewpoint Dewpoint Depression Visibility Wind Speed Wind Dir Waves Ship Positions

Tor Futura

Last reported at 2015-Jul-08 01:33 UTC. Time now 2015-Jul-08 02:18 UTC.
Position N 41°28' E 006°28'.

Length 183.1 m; beam 25.2 m; draft 7.8 m.

Type: Cargo ship. MMSI: 219927000.

Date/timePositionNaut miles runAvg speedWind from/ knotsBaromVisibWave heightAir tempDewpointWater temp
2015-Jul-08 01:33N 41°28' E 006°28'1716.8
2015-Jul-08 00:33N 41°42' E 006°17'1716.6
2015-Jul-07 23:33N 41°57' E 006°06'1616.3
2015-Jul-07 22:33N 42°11' E 005°55'3316.1
2015-Jul-07 20:32N 42°39' E 005°34'1715.9
2015-Jul-07 19:27N 42°54' E 005°22'1516.4
2015-Jul-07 18:33N 43°07' E 005°12'1313.1
2015-Jul-07 17:33N 43°20' E 005°16'4 4.2
2015-Jul-07 16:33N 43°19' E 005°22'0 0.0
2015-Jul-07 15:27N 43°19' E 005°22'0 0.0
2015-Jul-07 14:27N 43°19' E 005°22'0 0.0
2015-Jul-07 13:27N 43°19' E 005°22'0 0.0
2015-Jul-07 12:33N 43°19' E 005°22'0 0.0
2015-Jul-07 11:33N 43°19' E 005°22'0 0.0
2015-Jul-07 10:33N 43°19' E 005°22'0 0.0
2015-Jul-07 09:33N 43°19' E 005°22'0 0.0
2015-Jul-07 08:33N 43°19' E 005°22'0 0.0
2015-Jul-07 07:33N 43°19' E 005°22'0 0.0
2015-Jul-07 06:27N 43°19' E 005°22'0 0.0
2015-Jul-07 05:33N 43°19' E 005°22'0 0.0
2015-Jul-07 04:27N 43°19' E 005°22'0 0.0
2015-Jul-07 03:27N 43°19' E 005°22'0 0.0
2015-Jul-07 02:27N 43°19' E 005°22'0 0.0
2015-Jul-07 01:27N 43°19' E 005°22'0 0.0
2015-Jul-07 00:33N 43°19' E 005°22'0 0.0
2015-Jul-06 23:33N 43°19' E 005°22'0 0.0
2015-Jul-06 22:33N 43°19' E 005°22'0 0.0
2015-Jul-06 21:30N 43°19' E 005°22'0 0.0
2015-Jul-06 20:33N 43°19' E 005°22'0 0.0
2015-Jul-06 19:33N 43°19' E 005°22'0 0.0
2015-Jul-06 18:33N 43°19' E 005°22'0 0.0
2015-Jul-06 17:27N 43°19' E 005°22'0 0.0
2015-Jul-06 16:27N 43°19' E 005°22'0 0.0
2015-Jul-06 15:33N 43°19' E 005°22'0 0.0
2015-Jul-06 14:27N 43°19' E 005°22'0 0.0
2015-Jul-06 13:33N 43°19' E 005°22'0 0.0
2015-Jul-06 12:33N 43°19' E 005°22'0 0.0
2015-Jul-06 11:33N 43°19' E 005°22'0 0.0
2015-Jul-06 10:33N 43°19' E 005°22'0 0.0
2015-Jul-06 09:33N 43°19' E 005°22'0 0.0
2015-Jul-06 08:33N 43°19' E 005°22'0 0.0
2015-Jul-06 07:33N 43°19' E 005°22'3 2.9
2015-Jul-06 06:33N 43°21' E 005°19'1212.2
2015-Jul-06 05:33N 43°10' E 005°12'1616.0
2015-Jul-06 04:33N 42°56' E 005°23'1716.9
2015-Jul-06 03:33N 42°41' E 005°34'1716.7
2015-Jul-06 02:33N 42°26' E 005°45'1716.6
2015-Jul-06 01:32N 42°12' E 005°56'1616.8
2015-Jul-06 00:33N 41°57' E 006°07'1717.0
2015-Jul-05 23:33N 41°42' E 006°18'1717.2
2015-Jul-05 22:33N 41°27' E 006°29'1717.0
2015-Jul-05 21:33N 41°12' E 006°40'1717.1
2015-Jul-05 20:33N 40°57' E 006°51'1817.2
2015-Jul-05 19:31N 40°42' E 007°02'1717.2
2015-Jul-05 18:33N 40°27' E 007°13'1917.2
2015-Jul-05 17:28N 40°11' E 007°25'1517.0
2015-Jul-05 16:33N 39°57' E 007°34'1717.0
2015-Jul-05 15:33N 39°42' E 007°45'1717.0
2015-Jul-05 14:33N 39°28' E 007°56'3517.0
2015-Jul-05 12:30N 38°57' E 008°18'1516.5
2015-Jul-05 11:33N 38°45' E 008°31'1716.9
2015-Jul-05 10:33N 38°35' E 008°48'1717.1
2015-Jul-05 09:33N 38°24' E 009°05'1818.3
2015-Jul-05 08:33N 38°13' E 009°23'1717.4
2015-Jul-05 07:33N 38°02' E 009°41'1817.3
2015-Jul-05 06:32N 37°51' E 009°59'1616.6
2015-Jul-05 05:34N 37°41' E 010°14'1717.4
2015-Jul-05 04:33N 37°24' E 010°21'1817.8
2015-Jul-05 03:33N 37°07' E 010°24'1916.8
2015-Jul-05 02:27N 36°48' E 010°22'4 0.2
2015-Jul-04 05:24N 36°49' E 010°18'11 8.3
2015-Jul-04 04:06N 36°58' E 010°23'712.6
2015-Jul-04 03:33N 37°05' E 010°23'1513.2
2015-Jul-04 02:26N 37°20' E 010°22'1512.1
2015-Jul-04 01:12N 37°34' E 010°14'812.8
2015-Jul-04 00:32N 37°35' E 010°03'1313.0
2015-Jul-03 23:33N 37°42' E 009°50'1313.2
2015-Jul-03 22:32N 37°51' E 009°37'1313.2
2015-Jul-03 21:33N 38°00' E 009°26'1313.3
2015-Jul-03 20:33N 38°10' E 009°14'1313.5
2015-Jul-03 19:33N 38°20' E 009°02'1313.4
2015-Jul-03 18:33N 38°29' E 008°50'1313.3
2015-Jul-03 17:33N 38°38' E 008°38'1513.3
2015-Jul-03 16:27N 38°49' E 008°25'1314.1
2015-Jul-03 15:32N 38°59' E 008°15'12714.2
2015-Jul-03 06:33N 40°51' E 006°54'1413.7
2015-Jul-03 05:30N 41°03' E 006°45'1313.8
2015-Jul-03 04:33N 41°15' E 006°37'1413.7
2015-Jul-03 03:33N 41°27' E 006°28'1313.3
2015-Jul-03 02:33N 41°38' E 006°19'1413.6
2015-Jul-03 01:33N 41°50' E 006°11'1413.6
2015-Jul-03 00:33N 42°02' E 006°02'1413.9
2015-Jul-02 23:33N 42°14' E 005°53'1413.8
2015-Jul-02 22:33N 42°26' E 005°44'1413.7
2015-Jul-02 21:33N 42°38' E 005°35'1413.8
2015-Jul-02 20:33N 42°50' E 005°25'1413.6
2015-Jul-02 19:33N 43°02' E 005°16'1313.3
2015-Jul-02 18:33N 43°14' E 005°09'10 9.8
2015-Jul-02 17:33N 43°20' E 005°21'1 0.7
2015-Jul-02 16:32N 43°19' E 005°22'0 0.0
2015-Jul-02 15:32N 43°19' E 005°22'0 0.0
2015-Jul-02 14:23N 43°19' E 005°22'0 0.0
2015-Jul-02 13:29N 43°19' E 005°22'0 0.0
2015-Jul-02 12:17N 43°19' E 005°22'0 0.0
2015-Jul-02 11:32N 43°19' E 005°22'0 0.0
2015-Jul-02 10:17N 43°19' E 005°22'0 0.0
2015-Jul-02 09:29N 43°19' E 005°22'0 0.0
2015-Jul-02 08:23N 43°19' E 005°22'0 0.0
2015-Jul-02 07:29N 43°19' E 005°22'0 0.0
2015-Jul-02 06:30N 43°19' E 005°22'5 5.0
2015-Jul-02 05:34N 43°19' E 005°15'1312.7
2015-Jul-02 04:33N 43°07' E 005°21'1716.8
2015-Jul-02 03:33N 42°53' E 005°33'1515.1
2015-Jul-02 02:33N 42°38' E 005°37'1616.3
2015-Jul-02 01:34N 42°23' E 005°47'1717.2
2015-Jul-02 00:33N 42°08' E 005°58'1717.2
2015-Jul-01 23:33N 41°53' E 006°09'1716.9
2015-Jul-01 22:33N 41°38' E 006°20'1716.7
2015-Jul-01 21:33N 41°23' E 006°30'1716.7
2015-Jul-01 20:33N 41°09' E 006°42'1716.8
2015-Jul-01 19:33N 40°54' E 006°53'1716.6
2015-Jul-01 18:33N 40°40' E 007°03'1717.0
2015-Jul-01 17:33N 40°25' E 007°14'1817.1
2015-Jul-01 16:32N 40°10' E 007°25'1717.0
2015-Jul-01 15:31N 39°55' E 007°36'1917.2
2015-Jul-01 14:26N 39°38' E 007°48'3417.2
2015-Jul-01 12:27N 39°09' E 008°09'1516.9
2015-Jul-01 11:33N 38°56' E 008°19'1716.6
2015-Jul-01 10:31N 38°43' E 008°35'1717.3
2015-Jul-01 09:33N 38°34' E 008°52'1716.6
2015-Jul-01 08:33N 38°23' E 009°08'1716.8
2015-Jul-01 07:33N 38°12' E 009°24'2117.1
2015-Jul-01 06:20N 37°59' E 009°45'1817.2
2015-Jul-01 05:16N 37°48' E 010°03'1416.6
2015-Jul-01 04:26N 37°38' E 010°16'1517.1
2015-Jul-01 03:33N 37°25' E 010°24'1717.2
2015-Jul-01 02:33N 37°07' E 010°24'20 1.3
2015-Jun-30 11:25N 36°48' E 010°16'0 0.0
2015-Jun-30 10:10N 36°48' E 010°16'0 0.0
2015-Jun-30 09:28N 36°48' E 010°16'0 0.0
2015-Jun-30 08:28N 36°48' E 010°16'0 0.0
2015-Jun-29 14:31N 36°48' E 010°16'34 2.8
2015-Jun-29 02:20N 37°22' E 010°21'1013.2
2015-Jun-29 01:33N 37°32' E 010°18'4312.7
2015-Jun-28 22:10N 37°55' E 009°32'813.3
2015-Jun-28 21:33N 38°01' E 009°25'1313.4
2015-Jun-28 20:33N 38°10' E 009°13'1313.5
2015-Jun-28 19:33N 38°20' E 009°01'1515.0
2015-Jun-28 18:33N 38°31' E 008°48'1313.3
2015-Jun-28 17:32N 38°40' E 008°36'1313.0
2015-Jun-28 16:32N 38°50' E 008°24'1313.3
2015-Jun-28 15:33N 39°00' E 008°15'  
Track history (hours):
 
Tides and Currents Weather Stations Pressure Air Temp Water Temp Dewpoint Dewpoint Depression Visibility Wind Speed Wind Dir Waves Ship Positions

Tor Futura

Last reported at 2015-Jul-08 01:33 UTC. Time now 2015-Jul-08 02:18 UTC.
Position N 41°28' E 006°28'.

Length 183.1 m; beam 25.2 m; draft 7.8 m.

Type: Cargo ship. MMSI: 219927000.

Date/timePositionNaut miles runAvg speedWind from/ knotsBaromVisibWave heightAir tempDewpointWater temp
2015-Jul-08 01:33N 41°28' E 006°28'1716.8
2015-Jul-08 00:33N 41°42' E 006°17'1716.6
2015-Jul-07 23:33N 41°57' E 006°06'1616.3
2015-Jul-07 22:33N 42°11' E 005°55'3316.1
2015-Jul-07 20:32N 42°39' E 005°34'1715.9
2015-Jul-07 19:27N 42°54' E 005°22'1516.4
2015-Jul-07 18:33N 43°07' E 005°12'1313.1
2015-Jul-07 17:33N 43°20' E 005°16'4 4.2
2015-Jul-07 16:33N 43°19' E 005°22'0 0.0
2015-Jul-07 15:27N 43°19' E 005°22'0 0.0
2015-Jul-07 14:27N 43°19' E 005°22'0 0.0
2015-Jul-07 13:27N 43°19' E 005°22'0 0.0
2015-Jul-07 12:33N 43°19' E 005°22'0 0.0
2015-Jul-07 11:33N 43°19' E 005°22'0 0.0
2015-Jul-07 10:33N 43°19' E 005°22'0 0.0
2015-Jul-07 09:33N 43°19' E 005°22'0 0.0
2015-Jul-07 08:33N 43°19' E 005°22'0 0.0
2015-Jul-07 07:33N 43°19' E 005°22'0 0.0
2015-Jul-07 06:27N 43°19' E 005°22'0 0.0
2015-Jul-07 05:33N 43°19' E 005°22'0 0.0
2015-Jul-07 04:27N 43°19' E 005°22'0 0.0
2015-Jul-07 03:27N 43°19' E 005°22'0 0.0
2015-Jul-07 02:27N 43°19' E 005°22'0 0.0
2015-Jul-07 01:27N 43°19' E 005°22'0 0.0
2015-Jul-07 00:33N 43°19' E 005°22'0 0.0
2015-Jul-06 23:33N 43°19' E 005°22'0 0.0
2015-Jul-06 22:33N 43°19' E 005°22'0 0.0
2015-Jul-06 21:30N 43°19' E 005°22'0 0.0
2015-Jul-06 20:33N 43°19' E 005°22'0 0.0
2015-Jul-06 19:33N 43°19' E 005°22'0 0.0
2015-Jul-06 18:33N 43°19' E 005°22'0 0.0
2015-Jul-06 17:27N 43°19' E 005°22'0 0.0
2015-Jul-06 16:27N 43°19' E 005°22'0 0.0
2015-Jul-06 15:33N 43°19' E 005°22'0 0.0
2015-Jul-06 14:27N 43°19' E 005°22'0 0.0
2015-Jul-06 13:33N 43°19' E 005°22'0 0.0
2015-Jul-06 12:33N 43°19' E 005°22'0 0.0
2015-Jul-06 11:33N 43°19' E 005°22'0 0.0
2015-Jul-06 10:33N 43°19' E 005°22'0 0.0
2015-Jul-06 09:33N 43°19' E 005°22'0 0.0
2015-Jul-06 08:33N 43°19' E 005°22'0 0.0
2015-Jul-06 07:33N 43°19' E 005°22'3 2.9
2015-Jul-06 06:33N 43°21' E 005°19'1212.2
2015-Jul-06 05:33N 43°10' E 005°12'1616.0
2015-Jul-06 04:33N 42°56' E 005°23'1716.9
2015-Jul-06 03:33N 42°41' E 005°34'1716.7
2015-Jul-06 02:33N 42°26' E 005°45'1716.6
2015-Jul-06 01:32N 42°12' E 005°56'1616.8
2015-Jul-06 00:33N 41°57' E 006°07'1717.0
2015-Jul-05 23:33N 41°42' E 006°18'1717.2
2015-Jul-05 22:33N 41°27' E 006°29'1717.0
2015-Jul-05 21:33N 41°12' E 006°40'1717.1
2015-Jul-05 20:33N 40°57' E 006°51'1817.2
2015-Jul-05 19:31N 40°42' E 007°02'1717.2
2015-Jul-05 18:33N 40°27' E 007°13'1917.2
2015-Jul-05 17:28N 40°11' E 007°25'1517.0
2015-Jul-05 16:33N 39°57' E 007°34'1717.0
2015-Jul-05 15:33N 39°42' E 007°45'1717.0
2015-Jul-05 14:33N 39°28' E 007°56'3517.0
2015-Jul-05 12:30N 38°57' E 008°18'1516.5
2015-Jul-05 11:33N 38°45' E 008°31'1716.9
2015-Jul-05 10:33N 38°35' E 008°48'1717.1
2015-Jul-05 09:33N 38°24' E 009°05'1818.3
2015-Jul-05 08:33N 38°13' E 009°23'1717.4
2015-Jul-05 07:33N 38°02' E 009°41'1817.3
2015-Jul-05 06:32N 37°51' E 009°59'1616.6
2015-Jul-05 05:34N 37°41' E 010°14'1717.4
2015-Jul-05 04:33N 37°24' E 010°21'1817.8
2015-Jul-05 03:33N 37°07' E 010°24'1916.8
2015-Jul-05 02:27N 36°48' E 010°22'4 0.2
2015-Jul-04 05:24N 36°49' E 010°18'11 8.3
2015-Jul-04 04:06N 36°58' E 010°23'712.6
2015-Jul-04 03:33N 37°05' E 010°23'1513.2
2015-Jul-04 02:26N 37°20' E 010°22'1512.1
2015-Jul-04 01:12N 37°34' E 010°14'812.8
2015-Jul-04 00:32N 37°35' E 010°03'1313.0
2015-Jul-03 23:33N 37°42' E 009°50'1313.2
2015-Jul-03 22:32N 37°51' E 009°37'1313.2
2015-Jul-03 21:33N 38°00' E 009°26'1313.3
2015-Jul-03 20:33N 38°10' E 009°14'1313.5
2015-Jul-03 19:33N 38°20' E 009°02'1313.4
2015-Jul-03 18:33N 38°29' E 008°50'1313.3
2015-Jul-03 17:33N 38°38' E 008°38'1513.3
2015-Jul-03 16:27N 38°49' E 008°25'1314.1
2015-Jul-03 15:32N 38°59' E 008°15'12714.2
2015-Jul-03 06:33N 40°51' E 006°54'1413.7
2015-Jul-03 05:30N 41°03' E 006°45'1313.8
2015-Jul-03 04:33N 41°15' E 006°37'1413.7
2015-Jul-03 03:33N 41°27' E 006°28'1313.3
2015-Jul-03 02:33N 41°38' E 006°19'1413.6
2015-Jul-03 01:33N 41°50' E 006°11'1413.6
2015-Jul-03 00:33N 42°02' E 006°02'1413.9
2015-Jul-02 23:33N 42°14' E 005°53'1413.8
2015-Jul-02 22:33N 42°26' E 005°44'1413.7
2015-Jul-02 21:33N 42°38' E 005°35'1413.8
2015-Jul-02 20:33N 42°50' E 005°25'1413.6
2015-Jul-02 19:33N 43°02' E 005°16'1313.3
2015-Jul-02 18:33N 43°14' E 005°09'10 9.8
2015-Jul-02 17:33N 43°20' E 005°21'1 0.7
2015-Jul-02 16:32N 43°19' E 005°22'0 0.0
2015-Jul-02 15:32N 43°19' E 005°22'0 0.0
2015-Jul-02 14:23N 43°19' E 005°22'0 0.0
2015-Jul-02 13:29N 43°19' E 005°22'0 0.0
2015-Jul-02 12:17N 43°19' E 005°22'0 0.0
2015-Jul-02 11:32N 43°19' E 005°22'0 0.0
2015-Jul-02 10:17N 43°19' E 005°22'0 0.0
2015-Jul-02 09:29N 43°19' E 005°22'0 0.0
2015-Jul-02 08:23N 43°19' E 005°22'0 0.0
2015-Jul-02 07:29N 43°19' E 005°22'0 0.0
2015-Jul-02 06:30N 43°19' E 005°22'5 5.0
2015-Jul-02 05:34N 43°19' E 005°15'1312.7
2015-Jul-02 04:33N 43°07' E 005°21'1716.8
2015-Jul-02 03:33N 42°53' E 005°33'1515.1
2015-Jul-02 02:33N 42°38' E 005°37'1616.3
2015-Jul-02 01:34N 42°23' E 005°47'1717.2
2015-Jul-02 00:33N 42°08' E 005°58'1717.2
2015-Jul-01 23:33N 41°53' E 006°09'1716.9
2015-Jul-01 22:33N 41°38' E 006°20'1716.7
2015-Jul-01 21:33N 41°23' E 006°30'1716.7
2015-Jul-01 20:33N 41°09' E 006°42'1716.8
2015-Jul-01 19:33N 40°54' E 006°53'1716.6
2015-Jul-01 18:33N 40°40' E 007°03'1717.0
2015-Jul-01 17:33N 40°25' E 007°14'1817.1
2015-Jul-01 16:32N 40°10' E 007°25'1717.0
2015-Jul-01 15:31N 39°55' E 007°36'1917.2
2015-Jul-01 14:26N 39°38' E 007°48'3417.2
2015-Jul-01 12:27N 39°09' E 008°09'1516.9
2015-Jul-01 11:33N 38°56' E 008°19'1716.6
2015-Jul-01 10:31N 38°43' E 008°35'1717.3
2015-Jul-01 09:33N 38°34' E 008°52'1716.6
2015-Jul-01 08:33N 38°23' E 009°08'1716.8
2015-Jul-01 07:33N 38°12' E 009°24'2117.1
2015-Jul-01 06:20N 37°59' E 009°45'1817.2
2015-Jul-01 05:16N 37°48' E 010°03'1416.6
2015-Jul-01 04:26N 37°38' E 010°16'1517.1
2015-Jul-01 03:33N 37°25' E 010°24'1717.2
2015-Jul-01 02:33N 37°07' E 010°24'20 1.3
2015-Jun-30 11:25N 36°48' E 010°16'0 0.0
2015-Jun-30 10:10N 36°48' E 010°16'0 0.0
2015-Jun-30 09:28N 36°48' E 010°16'0 0.0
2015-Jun-30 08:28N 36°48' E 010°16'0 0.0
2015-Jun-29 14:31N 36°48' E 010°16'34 2.8
2015-Jun-29 02:20N 37°22' E 010°21'1013.2
2015-Jun-29 01:33N 37°32' E 010°18'4312.7
2015-Jun-28 22:10N 37°55' E 009°32'813.3
2015-Jun-28 21:33N 38°01' E 009°25'1313.4
2015-Jun-28 20:33N 38°10' E 009°13'1313.5
2015-Jun-28 19:33N 38°20' E 009°01'1515.0
2015-Jun-28 18:33N 38°31' E 008°48'1313.3
2015-Jun-28 17:32N 38°40' E 008°36'1313.0
2015-Jun-28 16:32N 38°50' E 008°24'1313.3
2015-Jun-28 15:33N 39°00' E 008°15'  

Dump ship's entire track history